Cherry, Illinois
Current Conditions -  °F | °C
As of 2:15 AM on Monday 24 Nov 2014 (Local Time) from KVYS Reporting Station
Moderate Rain Moderate Rain  
Wind Chill: 45°   Ceiling: 300
Heat Index: 49°   Visibility: 2mi
Dew Point: 48°   Wind: 9mph
Humidity: 98%   Direction: 250°WSW
Pressure: 29.12"   Gusts: NA
Location:  41.43°N, 89.21°W
Report Text: KVYS 240815Z AUTO 25008KT 2SM RA OVC003 09/09 A2912 RMK AO2 P0003 T00930090
Loading
Personal Weather Stations






























Interactive Weather Map New forecast layout! Learn more

10-Day Weather Forecast

Advertisements
Track Severe Weather on mobile